Time;durP1;ratioP1;P1;durP2;ratioP2;P2;SDS_P1;SDS_P2;PMS_P1;PMS_P2;Temp;Humidity;BMP_temperature;BMP_pressure;BME280_temperature;BME280_humidity;BME280_pressure;Samples;Min_cycle;Max_cycle;Signal;HPM_P1;HPM_P2
2023/02/21 02:16:08;;;;;;;3.10;2.10;;;;;;;9.43;100.00;98280.35;108715;1263;66814;-79
2023/02/21 02:19:07;;;;;;;2.40;2.10;;;;;;;9.42;100.00;98275.46;108947;1259;61300;-79
2023/02/21 02:21:55;;;;;;;3.80;2.40;;;;;;;9.42;100.00;98274.71;108996;1259;63846;-79
2023/02/21 02:24:40;;;;;;;3.60;2.40;;;;;;;9.42;100.00;98274.56;109034;1259;59098;-78
2023/02/21 02:27:44;;;;;;;3.70;2.50;;;;;;;9.42;100.00;98270.30;109010;1259;59401;-79
2023/02/21 02:30:29;;;;;;;4.30;2.40;;;;;;;9.42;100.00;98270.31;108852;1259;65679;-79
2023/02/21 02:33:05;;;;;;;3.30;2.60;;;;;;;9.41;100.00;98271.77;109017;1259;60726;-79
2023/02/21 02:35:39;;;;;;;3.60;2.50;;;;;;;9.39;100.00;98274.75;109005;1259;63724;-78
2023/02/21 02:38:08;;;;;;;3.90;2.30;;;;;;;9.37;100.00;98273.39;108983;1259;58959;-78
2023/02/21 02:40:47;;;;;;;2.70;2.40;;;;;;;9.32;100.00;98276.77;109010;1259;59012;-80
2023/02/21 02:43:19;;;;;;;4.00;2.40;;;;;;;9.27;100.00;98279.25;109059;1259;67023;-79
2023/02/21 02:45:53;;;;;;;4.00;2.30;;;;;;;9.20;100.00;98282.73;109059;1259;59717;-79
2023/02/21 02:48:27;;;;;;;4.00;2.30;;;;;;;9.14;100.00;98282.66;109019;1259;63876;-79
2023/02/21 02:50:54;;;;;;;3.90;2.70;;;;;;;9.07;100.00;98290.08;109001;1259;58975;-79
2023/02/21 02:53:26;;;;;;;3.60;2.60;;;;;;;9.01;100.00;98284.51;109441;1251;58908;-79
2023/02/21 02:55:56;;;;;;;3.10;2.60;;;;;;;8.95;100.00;98287.04;109605;1251;67082;-80
2023/02/21 02:58:25;;;;;;;3.10;2.80;;;;;;;8.88;100.00;98285.23;109687;1251;60726;-79
2023/02/21 03:01:15;;;;;;;5.20;2.70;;;;;;;8.82;100.00;98286.01;109605;1251;64709;-80
2023/02/21 03:04:05;;;;;;;7.50;3.20;;;;;;;8.76;100.00;98285.33;108942;1259;59135;-79
2023/02/21 03:06:32;;;;;;;;;;;;;;;8.74;100.00;98283.89;108958;1260;59081;-80
2023/02/21 03:09:07;;;;;;;4.20;2.80;;;;;;;8.73;100.00;98283.40;109000;1259;66169;-79
2023/02/21 03:11:41;;;;;;;3.60;2.50;;;;;;;8.73;100.00;98293.88;109023;1259;60216;-79
2023/02/21 03:14:13;;;;;;;7.50;3.20;;;;;;;8.73;100.00;98293.40;108840;1259;63720;-78
2023/02/21 03:16:48;;;;;;;4.20;3.00;;;;;;;8.72;100.00;98295.71;108951;1259;59013;-79
2023/02/21 03:19:21;;;;;;;6.30;3.10;;;;;;;8.71;100.00;98304.85;108886;1259;59071;-78
2023/02/21 03:22:05;;;;;;;3.60;2.70;;;;;;;8.69;100.00;98303.19;108969;1259;66779;-79
2023/02/21 03:24:34;;;;;;;3.90;3.10;;;;;;;8.67;100.00;98302.98;108969;1259;59723;-79
2023/02/21 03:27:05;;;;;;;2.60;2.30;;;;;;;8.66;100.00;98298.30;108979;1259;64303;-78
2023/02/21 03:29:33;;;;;;;5.60;3.20;;;;;;;8.64;100.00;98297.00;108863;1259;59484;-78
2023/02/21 03:34:41;;;;;;;4.50;2.80;;;;;;;8.58;100.00;98290.70;108929;1259;66148;-79
2023/02/21 03:37:17;;;;;;;4.80;3.20;;;;;;;8.54;100.00;98285.64;108990;1260;60785;-78
2023/02/21 03:39:43;;;;;;;5.90;3.60;;;;;;;8.52;100.00;98285.30;108829;1259;64300;-80
2023/02/21 03:42:10;;;;;;;5.90;4.30;;;;;;;8.50;100.00;98290.55;109552;1252;58970;-79
2023/02/21 03:44:37;;;;;;;5.20;4.10;;;;;;;8.49;100.00;98288.85;109572;1254;59019;-78
2023/02/21 03:47:03;;;;;;;5.60;3.40;;;;;;;8.47;100.00;98288.98;109526;1252;65815;-78
2023/02/21 03:49:30;;;;;;;4.50;2.70;;;;;;;8.46;100.00;98294.05;109528;1253;60765;-78
2023/02/21 03:51:56;;;;;;;3.00;2.20;;;;;;;8.45;100.00;98297.48;109471;1253;64153;-77
2023/02/21 03:54:24;;;;;;;3.60;2.50;;;;;;;8.45;100.00;98300.14;109241;1254;58980;-79
2023/02/21 03:56:50;;;;;;;2.80;2.10;;;;;;;8.44;100.00;98293.83;109226;1252;59047;-79
2023/02/21 03:59:17;;;;;;;2.80;2.30;;;;;;;8.43;100.00;98293.00;109560;1253;66692;-78
2023/02/21 04:01:44;;;;;;;3.90;2.30;;;;;;;8.42;100.00;98292.87;109494;1254;60711;-78
2023/02/21 04:04:11;;;;;;;2.50;2.30;;;;;;;8.42;100.00;98293.61;109534;1254;65234;-79
2023/02/21 04:06:37;;;;;;;4.80;2.60;;;;;;;8.42;100.00;98293.20;109520;1252;58908;-79
2023/02/21 04:09:04;;;;;;;3.30;2.00;;;;;;;8.42;100.00;98291.27;109559;1252;59029;-78
2023/02/21 04:11:31;;;;;;;5.70;2.30;;;;;;;8.41;100.00;98290.51;109240;1257;67098;-79
2023/02/21 04:13:57;;;;;;;2.70;2.20;;;;;;;8.38;100.00;98288.34;109225;1254;61387;-78
2023/02/21 04:16:24;;;;;;;2.60;2.30;;;;;;;8.37;100.00;98286.30;109528;1252;63703;-79
2023/02/21 04:18:51;;;;;;;3.40;2.60;;;;;;;8.36;100.00;98285.97;109504;1253;58896;-78
2023/02/21 04:21:18;;;;;;;6.00;3.60;;;;;;;8.35;100.00;98284.26;109565;1253;58778;-79
2023/02/21 04:23:45;;;;;;;2.60;2.10;;;;;;;8.34;100.00;98286.32;109515;1252;73856;-78
2023/02/21 04:26:11;;;;;;;4.30;3.30;;;;;;;8.33;100.00;98289.41;109245;1254;60859;-78
2023/02/21 04:28:38;;;;;;;2.80;2.20;;;;;;;8.30;100.00;98290.33;109527;1254;63897;-78
2023/02/21 04:31:05;;;;;;;3.90;2.80;;;;;;;8.26;100.00;98300.00;109553;1253;59007;-79
2023/02/21 04:33:31;;;;;;;3.70;2.70;;;;;;;8.22;100.00;98306.08;109569;1253;59008;-79
2023/02/21 04:35:58;;;;;;;3.70;3.20;;;;;;;8.17;100.00;98305.70;109534;1254;74768;-78
2023/02/21 04:38:24;;;;;;;3.80;3.00;;;;;;;8.14;100.00;98302.23;109471;1254;59742;-78
2023/02/21 04:40:51;;;;;;;4.50;3.50;;;;;;;8.10;100.00;98297.01;109500;1252;65173;-77
2023/02/21 04:43:20;;;;;;;4.30;3.40;;;;;;;8.07;100.00;98286.58;109551;1254;59082;-79
2023/02/21 04:45:47;;;;;;;4.30;3.50;;;;;;;8.03;100.00;98285.65;109543;1254;59035;-78
2023/02/21 04:48:13;;;;;;;7.30;3.50;;;;;;;7.98;100.00;98283.64;109571;1253;66872;-79
2023/02/21 04:50:40;;;;;;;3.80;3.10;;;;;;;7.95;100.00;98282.15;109509;1253;60124;-79
2023/02/21 04:53:06;;;;;;;5.80;3.70;;;;;;;7.90;100.00;98281.71;109579;1254;65093;-79
2023/02/21 04:55:33;;;;;;;5.90;3.90;;;;;;;7.87;100.00;98283.66;109509;1253;59020;-79
2023/02/21 04:58:00;;;;;;;7.10;4.50;;;;;;;7.84;100.00;98288.10;109531;1254;59032;-79
2023/02/21 05:00:26;;;;;;;5.60;4.30;;;;;;;7.81;100.00;98286.76;109496;1252;65679;-79
2023/02/21 05:02:53;;;;;;;6.50;4.10;;;;;;;7.79;100.00;98286.90;109477;1253;61263;-79
2023/02/21 05:05:20;;;;;;;5.30;4.00;;;;;;;7.78;100.00;98286.97;109353;1253;65052;-78
2023/02/21 05:07:47;;;;;;;5.00;4.30;;;;;;;7.77;100.00;98290.55;109509;1252;59008;-80
2023/02/21 05:10:16;;;;;;;5.80;4.30;;;;;;;7.77;100.00;98288.80;109490;1254;58979;-79
2023/02/21 05:12:42;;;;;;;4.50;4.10;;;;;;;7.78;100.00;98287.67;109427;1254;67089;-79
2023/02/21 05:15:11;;;;;;;6.30;4.20;;;;;;;7.78;100.00;98291.17;109289;1252;60913;-79
2023/02/21 05:17:38;;;;;;;5.20;4.00;;;;;;;7.80;100.00;98293.00;109502;1254;64791;-78
2023/02/21 05:20:10;;;;;;;4.00;3.60;;;;;;;7.82;100.00;98294.13;109499;1253;59005;-79
2023/02/21 05:22:39;;;;;;;5.30;4.00;;;;;;;7.83;100.00;98300.02;109259;1253;58879;-79
2023/02/21 05:25:26;;;;;;;4.50;4.10;;;;;;;7.85;100.00;98301.64;109540;1254;67107;-79
2023/02/21 05:27:53;;;;;;;7.30;5.70;;;;;;;7.86;100.00;98305.49;109551;1253;58973;-77
2023/02/21 05:30:22;;;;;;;8.80;5.60;;;;;;;7.85;100.00;98304.14;109502;1251;64215;-78
2023/02/21 05:32:49;;;;;;;5.80;5.20;;;;;;;7.83;100.00;98305.19;109516;1256;58952;-79
2023/02/21 05:35:16;;;;;;;7.70;5.40;;;;;;;7.80;100.00;98308.02;109472;1254;59031;-80
2023/02/21 05:37:43;;;;;;;6.20;5.50;;;;;;;7.78;100.00;98306.24;109482;1254;67031;-79
2023/02/21 05:40:11;;;;;;;9.00;8.00;;;;;;;7.75;100.00;98308.38;109621;1254;59845;-79
2023/02/21 05:42:38;;;;;;;10.20;7.20;;;;;;;7.71;100.00;98305.94;109251;1254;65040;-79
2023/02/21 05:45:05;;;;;;;7.60;5.20;;;;;;;7.69;100.00;98301.51;109482;1252;59010;-79
2023/02/21 05:47:33;;;;;;;8.90;6.40;;;;;;;7.66;100.00;98304.20;109532;1253;59334;-80
2023/02/21 05:50:00;;;;;;;7.00;6.30;;;;;;;7.64;100.00;98304.83;109430;1254;67018;-79
2023/02/21 05:52:27;;;;;;;7.60;6.70;;;;;;;7.62;100.00;98304.96;109297;1257;60127;-78
2023/02/21 05:54:54;;;;;;;8.00;7.20;;;;;;;7.59;100.00;98309.80;109527;1252;64842;-79
2023/02/21 05:57:21;;;;;;;9.10;7.50;;;;;;;7.56;100.00;98303.41;109539;1253;58944;-79
2023/02/21 05:59:47;;;;;;;9.20;8.20;;;;;;;7.53;100.00;98299.73;109547;1253;59109;-78
2023/02/21 06:02:15;;;;;;;7.00;6.00;;;;;;;7.52;100.00;98305.13;109498;1253;66079;-78
2023/02/21 06:04:42;;;;;;;8.80;6.90;;;;;;;7.49;100.00;98305.80;109434;1257;60019;-79
2023/02/21 06:07:08;;;;;;;8.00;5.80;;;;;;;7.47;100.00;98308.75;109524;1252;65025;-79
2023/02/21 06:09:35;;;;;;;8.20;5.90;;;;;;;7.46;100.00;98310.81;109503;1253;59009;-80
2023/02/21 06:12:02;;;;;;;7.50;6.40;;;;;;;7.44;100.00;98309.13;109510;1253;59052;-80
2023/02/21 06:14:28;;;;;;;6.00;5.40;;;;;;;7.44;100.00;98311.83;109167;1254;66129;-80
2023/02/21 06:16:55;;;;;;;6.40;5.60;;;;;;;7.43;100.00;98311.72;109573;1252;67847;-80
2023/02/21 06:19:21;;;;;;;9.70;5.60;;;;;;;7.43;100.00;98314.57;109586;1252;64955;-79
2023/02/21 06:21:48;;;;;;;7.40;5.30;;;;;;;7.42;100.00;98317.25;109332;1253;58966;-79
2023/02/21 06:24:15;;;;;;;7.20;5.30;;;;;;;7.42;100.00;98320.26;109559;1253;59032;-78
2023/02/21 06:26:42;;;;;;;7.80;6.60;;;;;;;7.42;100.00;98321.13;109578;1252;66982;-79
2023/02/21 06:29:09;;;;;;;7.00;6.30;;;;;;;7.44;100.00;98321.85;109522;1252;61255;-79
2023/02/21 06:31:35;;;;;;;8.10;5.80;;;;;;;7.46;100.00;98326.86;109468;1254;63730;-78
2023/02/21 06:34:03;;;;;;;5.80;5.10;;;;;;;7.46;100.00;98329.14;109496;1253;59008;-78
2023/02/21 06:36:29;;;;;;;7.00;4.50;;;;;;;7.47;100.00;98330.71;109532;1252;59102;-78
2023/02/21 06:38:56;;;;;;;5.10;4.40;;;;;;;7.49;100.00;98333.75;109523;1252;67125;-79
2023/02/21 06:41:26;;;;;;;6.10;4.40;;;;;;;7.53;100.00;98328.73;109528;1253;60032;-79
2023/02/21 06:43:54;;;;;;;5.90;4.80;;;;;;;7.57;100.00;98327.05;109431;1253;65271;-79
2023/02/21 06:46:23;;;;;;;7.40;4.50;;;;;;;7.60;100.00;98331.63;109178;1252;58971;-78
2023/02/21 06:48:50;;;;;;;6.80;4.80;;;;;;;7.63;100.00;98336.02;109498;1254;58959;-78
2023/02/21 06:51:17;;;;;;;6.20;5.00;;;;;;;7.67;100.00;98337.88;109511;1253;66914;-79
2023/02/21 06:53:48;;;;;;;6.20;4.10;;;;;;;7.70;100.00;98339.96;109555;1252;59818;-80
2023/02/21 06:56:15;;;;;;;6.60;5.10;;;;;;;7.74;100.00;98336.21;109505;1253;65373;-79
2023/02/21 06:58:42;;;;;;;5.30;4.80;;;;;;;7.83;100.00;98340.36;109396;1252;58937;-79
2023/02/21 07:01:09;;;;;;;5.70;5.10;;;;;;;7.90;100.00;98336.02;109546;1252;59029;-79
2023/02/21 07:03:39;;;;;;;5.70;4.50;;;;;;;7.96;100.00;98332.11;109238;1253;66025;-79
2023/02/21 07:06:05;;;;;;;;;;;;;;;8.03;100.00;98336.94;109552;1253;61400;-79
2023/02/21 07:08:32;;;;;;;6.30;4.10;;;;;;;8.10;100.00;98341.23;109561;1253;62621;-79
2023/02/21 07:10:59;;;;;;;6.80;4.40;;;;;;;8.10;100.00;98345.84;109532;1253;59017;-78
2023/02/21 07:13:26;;;;;;;5.60;3.90;;;;;;;8.10;100.00;98346.54;109245;1253;59008;-79
2023/02/21 07:15:52;;;;;;;4.60;3.60;;;;;;;8.16;100.00;98349.48;109547;1253;67130;-79
2023/02/21 07:18:19;;;;;;;7.70;4.60;;;;;;;8.23;100.00;98352.19;109572;1252;60149;-79
2023/02/21 07:20:46;;;;;;;6.30;4.30;;;;;;;8.31;100.00;98359.63;109496;1252;64802;-78
2023/02/21 07:23:12;;;;;;;4.70;4.10;;;;;;;8.35;100.00;98363.39;109571;1253;58954;-79
2023/02/21 07:25:39;;;;;;;6.00;4.10;;;;;;;8.40;100.00;98363.99;109525;1254;58884;-80
2023/02/21 07:28:06;;;;;;;6.00;4.20;;;;;;;8.46;100.00;98359.16;109279;1253;66760;-79
2023/02/21 07:30:33;;;;;;;7.20;4.40;;;;;;;8.44;100.00;98359.98;109575;1253;61211;-79
2023/02/21 07:32:59;;;;;;;5.70;4.20;;;;;;;8.42;100.00;98368.68;109537;1253;64796;-79
2023/02/21 07:35:26;;;;;;;6.70;4.00;;;;;;;8.38;100.00;98370.14;109524;1252;59000;-79
2023/02/21 07:37:52;;;;;;;6.50;3.80;;;;;;;8.35;100.00;98369.80;109156;1253;59087;-79
2023/02/21 07:40:19;;;;;;;3.80;3.40;;;;;;;8.42;100.00;98370.44;109513;1253;66745;-79
2023/02/21 07:42:49;;;;;;;5.50;4.20;;;;;;;8.48;100.00;98369.70;109562;1253;60204;-78
2023/02/21 07:45:16;;;;;;;5.60;3.70;;;;;;;8.53;100.00;98372.17;109526;1253;64722;-79
2023/02/21 07:47:44;;;;;;;4.80;3.60;;;;;;;8.66;100.00;98365.95;109507;1253;59033;-79
2023/02/21 07:50:11;;;;;;;6.00;3.90;;;;;;;8.72;100.00;98369.95;109537;1253;58946;-79
2023/02/21 07:52:38;;;;;;;5.60;4.50;;;;;;;8.76;100.00;98376.39;109510;1253;67237;-79
2023/02/21 07:55:05;;;;;;;6.00;5.30;;;;;;;8.84;100.00;98377.09;109538;1253;61120;-79
2023/02/21 07:57:32;;;;;;;6.10;4.50;;;;;;;8.87;100.00;98371.20;109553;1254;65098;-79
2023/02/21 07:59:58;;;;;;;5.80;4.60;;;;;;;8.91;100.00;98373.45;109548;1253;58967;-79
2023/02/21 08:02:26;;;;;;;5.20;4.20;;;;;;;8.86;100.00;98379.63;109493;1251;58999;-79
2023/02/21 08:04:54;;;;;;;4.20;3.70;;;;;;;8.87;100.00;98379.15;109553;1252;64849;-79
2023/02/21 08:07:21;;;;;;;5.50;4.20;;;;;;;8.82;100.00;98375.98;109563;1253;60806;-79
2023/02/21 08:09:49;;;;;;;4.50;4.00;;;;;;;8.78;100.00;98382.08;109327;1254;64752;-79
2023/02/21 08:12:16;;;;;;;4.30;3.80;;;;;;;8.74;100.00;98382.17;109542;1252;58973;-79
2023/02/21 08:14:42;;;;;;;5.30;4.50;;;;;;;8.74;100.00;98375.63;109156;1254;59096;-79
2023/02/21 08:17:09;;;;;;;7.50;5.10;;;;;;;8.75;100.00;98377.52;109548;1253;65931;-80
2023/02/21 08:19:35;;;;;;;7.70;5.90;;;;;;;8.83;100.00;98374.48;109559;1252;61215;-79
2023/02/21 08:22:02;;;;;;;6.20;5.60;;;;;;;8.86;100.00;98374.66;109564;1252;65208;-79
2023/02/21 08:24:29;;;;;;;8.00;4.80;;;;;;;8.80;100.00;98376.86;109462;1253;58967;-78
2023/02/21 08:26:55;;;;;;;7.10;5.50;;;;;;;8.72;100.00;98381.83;109552;1252;59005;-79
2023/02/21 08:29:22;;;;;;;7.90;5.40;;;;;;;8.71;100.00;98382.28;109586;1252;66966;-79
2023/02/21 08:31:49;;;;;;;7.20;5.80;;;;;;;8.73;100.00;98382.98;109576;1252;60125;-79
2023/02/21 08:34:15;;;;;;;5.90;5.30;;;;;;;8.76;100.00;98375.84;109469;1253;64998;-79
2023/02/21 08:36:43;;;;;;;5.60;5.00;;;;;;;8.72;100.00;98378.60;109501;1252;59005;-80
2023/02/21 08:39:10;;;;;;;6.30;5.40;;;;;;;8.64;100.00;98387.64;109571;1252;59050;-79
2023/02/21 08:41:41;;;;;;;6.50;5.70;;;;;;;8.62;100.00;98387.66;109519;1251;66900;-79
2023/02/21 08:44:09;;;;;;;6.70;4.90;;;;;;;8.64;100.00;98384.66;109474;1251;60305;-79
2023/02/21 08:46:35;;;;;;;7.10;5.30;;;;;;;8.65;100.00;98385.13;109488;1252;64944;-79
2023/02/21 08:49:03;;;;;;;8.10;6.10;;;;;;;8.58;100.00;98391.79;109545;1252;58964;-79
2023/02/21 08:51:31;;;;;;;7.30;6.50;;;;;;;8.55;100.00;98397.11;109117;1253;59076;-79
2023/02/21 08:53:59;;;;;;;6.80;6.10;;;;;;;8.60;100.00;98395.59;109552;1253;66180;-79
2023/02/21 08:56:26;;;;;;;9.60;8.30;;;;;;;8.70;100.00;98397.02;109598;1252;59053;-78
2023/02/21 08:58:53;;;;;;;8.40;7.60;;;;;;;8.83;100.00;98396.30;109264;1253;65375;-79
2023/02/21 09:01:22;;;;;;;9.50;8.40;;;;;;;8.92;100.00;98398.67;109522;1253;59072;-79
2023/02/21 09:03:49;;;;;;;7.50;6.80;;;;;;;9.00;100.00;98404.51;109534;1252;58880;-79
2023/02/21 09:06:17;;;;;;;7.40;6.00;;;;;;;9.06;100.00;98406.39;109538;1251;67054;-79
2023/02/21 09:08:43;;;;;;;7.30;5.70;;;;;;;9.12;100.00;98409.46;109542;1252;60012;-79
2023/02/21 09:11:10;;;;;;;7.00;5.90;;;;;;;9.22;100.00;98412.38;109516;1252;64810;-79
2023/02/21 09:13:37;;;;;;;8.20;6.30;;;;;;;9.31;100.00;98406.01;109520;1251;58965;-79
2023/02/21 09:16:06;;;;;;;6.70;5.70;;;;;;;9.34;100.00;98405.30;109439;1252;153220;-79
2023/02/21 09:18:52;;;;;;;8.20;6.10;;;;;;;9.38;100.00;98415.24;109495;1252;67194;-79
2023/02/21 09:21:19;;;;;;;9.30;6.40;;;;;;;9.40;100.00;98414.77;109543;1252;60303;-78
2023/02/21 09:23:45;;;;;;;7.30;6.20;;;;;;;9.44;100.00;98422.09;109558;1252;65139;-78
2023/02/21 09:26:12;;;;;;;8.30;6.40;;;;;;;9.48;100.00;98419.73;109541;1253;58898;-78
2023/02/21 09:28:42;;;;;;;7.50;5.70;;;;;;;9.48;100.00;98424.69;109384;1252;58996;-79
2023/02/21 09:31:09;;;;;;;8.00;6.30;;;;;;;9.52;100.00;98433.63;109505;1252;67060;-79
2023/02/21 09:33:39;;;;;;;6.60;5.80;;;;;;;9.59;100.00;98430.77;109419;1252;60999;-79
2023/02/21 09:36:07;;;;;;;10.20;6.40;;;;;;;9.59;100.00;98433.78;109552;1253;64764;-79
2023/02/21 09:38:34;;;;;;;6.90;5.90;;;;;;;9.62;100.00;98435.56;109533;1252;58953;-78
2023/02/21 09:41:05;;;;;;;7.20;5.80;;;;;;;9.72;100.00;98436.24;109544;1252;59121;-79
2023/02/21 09:43:33;;;;;;;8.10;6.20;;;;;;;10.01;100.00;98433.05;109276;1252;67272;-79
2023/02/21 09:46:05;;;;;;;6.40;5.10;;;;;;;10.33;100.00;98426.27;109590;1253;59834;-79
2023/02/21 09:48:32;;;;;;;8.70;5.40;;;;;;;10.36;100.00;98419.12;109556;1251;65243;-79
2023/02/21 09:51:04;;;;;;;7.60;5.40;;;;;;;10.27;100.00;98421.58;109524;1252;58924;-79
2023/02/21 09:53:35;;;;;;;7.60;5.60;;;;;;;10.17;100.00;98431.56;109583;1252;58830;-80
2023/02/21 09:56:27;;;;;;;6.40;5.70;;;;;;;10.04;100.00;98437.80;109589;1252;66718;-79
2023/02/21 09:58:55;;;;;;;7.00;5.60;;;;;;;10.01;100.00;98448.99;109486;1252;61197;-80
2023/02/21 10:01:36;;;;;;;8.10;7.30;;;;;;;10.07;100.00;98443.42;109525;1253;65062;-80
2023/02/21 10:04:21;;;;;;;10.20;8.10;;;;;;;10.20;100.00;98445.13;109512;1252;59223;-78
2023/02/21 10:06:58;;;;;;;10.60;8.60;;;;;;;10.37;100.00;98447.33;109565;1253;59151;-78
2023/02/21 10:09:38;;;;;;;10.20;7.90;;;;;;;10.57;100.00;98449.13;109636;1251;65749;-79
2023/02/21 10:12:05;;;;;;;7.20;6.40;;;;;;;10.71;100.00;98444.91;109661;1252;60763;-79
2023/02/21 10:15:00;;;;;;;9.20;6.50;;;;;;;10.79;100.00;98442.55;109637;1252;64688;-79
2023/02/21 10:17:37;;;;;;;8.80;7.20;;;;;;;10.91;100.00;98439.85;109648;1252;59066;-79
2023/02/21 10:20:19;;;;;;;6.80;5.00;;;;;;;10.96;100.00;98435.48;109650;1252;58880;-79
2023/02/21 10:22:49;;;;;;;5.10;4.10;;;;;;;10.95;100.00;98432.94;109619;1252;66860;-79
2023/02/21 10:25:30;;;;;;;;;;;;;;;11.09;100.00;98436.61;109516;1252;61547;-80
2023/02/21 10:27:58;;;;;;;6.80;5.80;;;;;;;11.28;100.00;98438.88;109391;1252;65127;-79
2023/02/21 10:30:36;;;;;;;7.10;5.80;;;;;;;11.40;100.00;98436.13;109517;1252;59091;-79
2023/02/21 10:33:06;;;;;;;8.60;6.20;;;;;;;11.49;100.00;98434.73;109500;1252;58963;-79
2023/02/21 10:35:34;;;;;;;;;;;;;;;11.55;100.00;98434.41;109560;1253;66156;-79
2023/02/21 10:38:05;;;;;;;8.10;5.60;;;;;;;11.52;100.00;98436.80;109438;1252;60896;-79
2023/02/21 10:40:37;;;;;;;5.00;4.50;;;;;;;11.52;100.00;98436.79;109574;1253;64082;-79
2023/02/21 10:43:22;;;;;;;4.00;3.30;;;;;;;11.52;100.00;98440.39;109499;1253;58925;-80
2023/02/21 10:46:03;;;;;;;2.80;1.80;;;;;;;11.49;100.00;98436.68;109525;1252;59148;-79
2023/02/21 10:48:35;;;;;;;2.10;1.50;;;;;;;11.51;100.00;98435.80;109540;1253;66014;-79
2023/02/21 10:51:09;;;;;;;2.80;1.20;;;;;;;11.70;100.00;98436.98;109590;1252;60067;-81
2023/02/21 10:53:44;;;;;;;2.50;1.20;;;;;;;11.84;100.00;98437.98;109542;1251;63905;-75
2023/02/21 10:56:13;;;;;;;1.30;1.20;;;;;;;11.89;100.00;98433.39;109498;1252;59003;-75
2023/02/21 10:58:44;;;;;;;1.50;1.30;;;;;;;11.90;100.00;98426.71;109500;1251;59178;-75
2023/02/21 11:01:29;;;;;;;1.40;1.20;;;;;;;11.98;100.00;98438.31;109513;1251;66860;-75
2023/02/21 11:04:00;;;;;;;1.80;1.30;;;;;;;12.28;100.00;98439.92;109566;1250;61294;-74
2023/02/21 11:06:32;;;;;;;1.90;0.80;;;;;;;12.49;100.00;98442.46;109519;1251;65165;-74
2023/02/21 11:08:59;;;;;;;1.40;1.30;;;;;;;12.39;100.00;98442.23;109434;1252;59345;-74
2023/02/21 11:11:39;;;;;;;2.20;1.10;;;;;;;12.27;100.00;98438.73;109511;1251;58923;-74
2023/02/21 11:14:27;;;;;;;1.20;1.10;;;;;;;12.29;100.00;98433.27;109583;1251;67184;-78
2023/02/21 11:17:14;;;;;;;1.60;1.10;;;;;;;12.37;100.00;98434.88;109520;1251;60105;-74
2023/02/21 11:19:52;;;;;;;1.50;1.30;;;;;;;12.46;100.00;98431.69;109543;1251;65074;-79
2023/02/21 11:22:23;;;;;;;2.20;0.90;;;;;;;12.59;100.00;98439.00;109484;1251;59161;-83
2023/02/21 11:24:56;;;;;;;1.20;1.10;;;;;;;12.79;100.00;98444.94;109552;1251;59126;-78
2023/02/21 11:27:24;;;;;;;1.50;1.20;;;;;;;12.83;100.00;98435.88;109549;1252;66712;-80
2023/02/21 11:29:52;;;;;;;1.90;0.90;;;;;;;12.78;100.00;98433.84;109533;1251;61121;-80
2023/02/21 11:32:50;;;;;;;1.30;1.00;;;;;;;12.70;100.00;98433.23;109493;1252;64125;-78
2023/02/21 11:35:24;;;;;;;1.40;1.30;;;;;;;12.62;100.00;98426.61;108912;1259;59373;-78
2023/02/21 11:38:00;;;;;;;1.00;0.90;;;;;;;12.77;100.00;98432.14;108883;1259;59126;-80
2023/02/21 11:40:34;;;;;;;1.20;1.10;;;;;;;12.88;100.00;98429.06;108910;1259;67212;-78
2023/02/21 11:43:21;;;;;;;1.00;0.90;;;;;;;12.98;100.00;98436.52;108955;1259;61112;-77
2023/02/21 11:46:05;;;;;;;1.70;1.20;;;;;;;12.97;100.00;98441.94;108920;1259;64869;-78
2023/02/21 11:49:05;;;;;;;3.00;1.30;;;;;;;12.83;100.00;98449.77;108888;1259;59032;-79
2023/02/21 11:51:45;;;;;;;2.00;0.90;;;;;;;12.56;100.00;98446.00;108643;1264;59008;-78
2023/02/21 11:54:12;;;;;;;1.40;1.20;;;;;;;12.30;100.00;98438.31;108657;1264;66174;-78
2023/02/21 11:57:03;;;;;;;1.20;1.20;;;;;;;12.13;100.00;98451.14;108691;1265;59792;-78
2023/02/21 12:00:07;;;;;;;1.50;1.30;;;;;;;11.96;100.00;98447.73;108652;1264;64206;-78
2023/02/21 12:02:39;;;;;;;1.50;1.40;;;;;;;11.98;100.00;98446.81;108654;1264;59071;-78
2023/02/21 12:05:44;;;;;;;3.00;1.60;;;;;;;12.02;100.00;98450.95;108656;1264;59086;-78
2023/02/21 12:08:39;;;;;;;1.80;1.00;;;;;;;11.94;100.00;98450.92;108519;1265;67221;-79
2023/02/21 12:11:30;;;;;;;2.30;1.80;;;;;;;11.77;100.00;98455.80;108100;1270;60042;-77
2023/02/21 12:14:11;;;;;;;2.60;1.60;;;;;;;11.69;100.00;98460.71;108604;1265;64425;-78
2023/02/21 12:17:03;;;;;;;1.20;1.10;;;;;;;11.66;100.00;98471.44;108597;1265;59041;-78
2023/02/21 12:20:19;;;;;;;1.80;1.70;;;;;;;11.68;100.00;98473.29;108190;1270;59146;-80
2023/02/21 12:23:00;;;;;;;1.90;1.50;;;;;;;11.77;100.00;98467.01;107571;1276;67302;-77
2023/02/21 12:26:14;;;;;;;3.00;2.20;;;;;;;11.81;100.00;98460.11;107634;1276;60111;-77
2023/02/21 12:29:09;;;;;;;1.80;1.70;;;;;;;11.87;100.00;98448.09;107344;1276;64289;-77
2023/02/21 12:31:50;;;;;;;1.50;1.40;;;;;;;11.90;100.00;98452.52;107568;1276;59117;-78
2023/02/21 12:34:44;;;;;;;2.00;1.90;;;;;;;11.86;100.00;98455.98;107569;1276;60097;-78
2023/02/21 12:37:17;;;;;;;2.10;1.70;;;;;;;11.85;100.00;98456.63;107578;1276;66101;-78
2023/02/21 12:40:07;;;;;;;1.90;1.30;;;;;;;11.85;100.00;98449.50;107568;1276;59134;-78
2023/02/21 12:42:52;;;;;;;2.10;1.90;;;;;;;11.79;100.00;98457.04;107580;1276;63913;-79
2023/02/21 12:45:27;;;;;;;5.50;1.90;;;;;;;11.79;100.00;98445.98;107587;1276;59481;-80
2023/02/21 12:47:58;;;;;;;1.50;1.40;;;;;;;11.79;100.00;98452.59;107720;1272;59136;-78
2023/02/21 12:50:32;;;;;;;1.70;1.40;;;;;;;11.87;100.00;98451.98;108052;1272;66193;-79
2023/02/21 12:53:09;;;;;;;1.90;1.70;;;;;;;11.92;100.00;98458.17;108049;1272;60294;-79
2023/02/21 12:55:41;;;;;;;2.50;1.90;;;;;;;11.93;100.00;98466.14;107976;1272;64266;-79
2023/02/21 12:58:27;;;;;;;2.80;1.70;;;;;;;11.95;100.00;98461.49;108512;1265;59026;-78
2023/02/21 13:01:10;;;;;;;2.60;1.60;;;;;;;11.93;100.00;98462.06;108872;1259;59045;-78
2023/02/21 13:04:10;;;;;;;2.10;1.60;;;;;;;11.82;100.00;98463.75;108948;1259;65712;-77
2023/02/21 13:06:44;;;;;;;1.40;1.30;;;;;;;11.63;100.00;98467.98;109567;1252;61194;-80
2023/02/21 13:09:18;;;;;;;1.30;1.10;;;;;;;11.35;100.00;98469.86;109524;1253;65087;-78
2023/02/21 13:11:57;;;;;;;1.40;1.30;;;;;;;11.10;100.00;98463.61;109379;1252;59050;-78
2023/02/21 13:14:30;;;;;;;1.30;1.10;;;;;;;10.91;100.00;98471.06;109403;1253;58944;-78
2023/02/21 13:16:57;;;;;;;1.90;1.50;;;;;;;10.85;100.00;98475.64;109544;1252;66987;-77
2023/02/21 13:19:30;;;;;;;2.30;1.50;;;;;;;10.81;100.00;98475.81;109536;1251;59822;-78
2023/02/21 13:25:37;;;;;;;1.40;1.30;;;;;;;10.71;100.00;98489.52;109628;1251;58990;-79
2023/02/21 13:28:18;;;;;;;1.30;1.20;;;;;;;10.78;100.00;98487.77;109585;1251;59036;-78
2023/02/21 13:30:49;;;;;;;1.50;1.40;;;;;;;10.86;100.00;98477.20;109609;1251;67068;-78
2023/02/21 13:33:44;;;;;;;1.50;1.40;;;;;;;10.86;100.00;98479.79;109633;1251;61220;-78
2023/02/21 13:36:22;;;;;;;1.90;1.60;;;;;;;10.78;100.00;98472.82;109605;1251;65178;-78
2023/02/21 13:39:09;;;;;;;2.10;1.90;;;;;;;10.69;100.00;98461.08;109579;1251;58954;-77
2023/02/21 13:41:39;;;;;;;2.10;1.90;;;;;;;10.68;100.00;98464.51;109519;1251;59064;-78
2023/02/21 13:44:17;;;;;;;2.80;2.30;;;;;;;10.74;100.00;98467.92;109600;1250;67197;-78
2023/02/21 13:46:43;;;;;;;1.90;1.70;;;;;;;10.86;100.00;98467.09;109570;1251;58991;-78
2023/02/21 13:49:38;;;;;;;3.70;2.10;;;;;;;10.98;100.00;98459.34;109582;1251;64161;-78
2023/02/21 13:52:23;;;;;;;2.60;2.30;;;;;;;11.09;100.00;98459.43;109536;1251;59015;-78
2023/02/21 13:55:14;;;;;;;2.60;2.10;;;;;;;11.12;100.00;98462.16;109555;1251;59039;-78
2023/02/21 13:58:17;;;;;;;2.90;2.00;;;;;;;11.11;100.00;98469.05;109582;1251;66965;-79
2023/02/21 14:00:49;;;;;;;2.30;1.90;;;;;;;11.15;100.00;98476.04;109640;1251;60113;-77
2023/02/21 14:03:17;;;;;;;2.10;1.90;;;;;;;11.19;100.00;98477.83;109555;1251;65203;-78
2023/02/21 14:05:43;;;;;;;1.90;1.80;;;;;;;11.20;100.00;98483.77;109589;1251;58894;-78
2023/02/21 14:08:30;;;;;;;2.50;1.90;;;;;;;11.17;100.00;98481.54;109587;1251;59192;-80
2023/02/21 14:11:05;;;;;;;2.30;2.10;;;;;;;11.02;100.00;98489.85;109185;1256;67130;-78